sensor_id;sensor_type;location;lat;lon;timestamp;temperature;humidity
25536;DHT22;13431;51.352;6.412;2022-12-24T00:01:04;10.40;99.90
25536;DHT22;13431;51.352;6.412;2022-12-24T00:03:33;10.30;99.90
25536;DHT22;13431;51.352;6.412;2022-12-24T00:06:06;10.30;99.90
25536;DHT22;13431;51.352;6.412;2022-12-24T00:08:34;10.20;99.90
25536;DHT22;13431;51.352;6.412;2022-12-24T00:11:02;10.20;99.90
25536;DHT22;13431;51.352;6.412;2022-12-24T00:13:29;10.10;99.90
25536;DHT22;13431;51.352;6.412;2022-12-24T00:15:56;10.00;99.90
25536;DHT22;13431;51.352;6.412;2022-12-24T00:18:24;9.80;99.90
25536;DHT22;13431;51.352;6.412;2022-12-24T00:20:51;9.60;99.90
25536;DHT22;13431;51.352;6.412;2022-12-24T00:23:19;9.50;99.90
25536;DHT22;13431;51.352;6.412;2022-12-24T00:25:46;9.40;99.90
25536;DHT22;13431;51.352;6.412;2022-12-24T00:28:14;9.30;99.90
25536;DHT22;13431;51.352;6.412;2022-12-24T00:30:42;9.30;99.90
25536;DHT22;13431;51.352;6.412;2022-12-24T00:33:10;9.20;99.90
25536;DHT22;13431;51.352;6.412;2022-12-24T00:35:38;9.20;99.90
25536;DHT22;13431;51.352;6.412;2022-12-24T00:38:06;9.20;99.90
25536;DHT22;13431;51.352;6.412;2022-12-24T00:40:34;9.20;99.90
25536;DHT22;13431;51.352;6.412;2022-12-24T00:43:02;9.30;99.90
25536;DHT22;13431;51.352;6.412;2022-12-24T00:45:29;9.10;99.90
25536;DHT22;13431;51.352;6.412;2022-12-24T00:47:56;9.00;99.90
25536;DHT22;13431;51.352;6.412;2022-12-24T00:50:24;9.00;99.90
25536;DHT22;13431;51.352;6.412;2022-12-24T00:52:51;8.90;99.90
25536;DHT22;13431;51.352;6.412;2022-12-24T00:55:19;8.90;99.90
25536;DHT22;13431;51.352;6.412;2022-12-24T00:57:46;9.00;99.90
25536;DHT22;13431;51.352;6.412;2022-12-24T01:00:13;8.90;99.90
25536;DHT22;13431;51.352;6.412;2022-12-24T01:02:43;9.10;99.90
25536;DHT22;13431;51.352;6.412;2022-12-24T01:05:11;9.10;99.90
25536;DHT22;13431;51.352;6.412;2022-12-24T01:07:42;9.20;99.90
25536;DHT22;13431;51.352;6.412;2022-12-24T01:10:12;9.20;99.90
25536;DHT22;13431;51.352;6.412;2022-12-24T01:12:40;9.10;99.90
25536;DHT22;13431;51.352;6.412;2022-12-24T01:15:09;9.10;99.90
25536;DHT22;13431;51.352;6.412;2022-12-24T01:17:37;9.10;99.90
25536;DHT22;13431;51.352;6.412;2022-12-24T01:20:06;9.10;99.90
25536;DHT22;13431;51.352;6.412;2022-12-24T01:22:34;9.30;99.90
25536;DHT22;13431;51.352;6.412;2022-12-24T01:25:02;9.30;99.90
25536;DHT22;13431;51.352;6.412;2022-12-24T01:27:29;9.30;99.90
25536;DHT22;13431;51.352;6.412;2022-12-24T01:29:57;9.20;99.90
25536;DHT22;13431;51.352;6.412;2022-12-24T01:32:24;9.30;99.90
25536;DHT22;13431;51.352;6.412;2022-12-24T01:34:51;9.20;99.90
25536;DHT22;13431;51.352;6.412;2022-12-24T01:37:18;9.10;99.90
25536;DHT22;13431;51.352;6.412;2022-12-24T01:39:46;9.20;99.90
25536;DHT22;13431;51.352;6.412;2022-12-24T01:42:22;9.10;99.90
25536;DHT22;13431;51.352;6.412;2022-12-24T01:53:34;8.90;99.90
25536;DHT22;13431;51.352;6.412;2022-12-24T01:56:04;8.80;99.90
25536;DHT22;13431;51.352;6.412;2022-12-24T01:58:33;8.80;99.90
25536;DHT22;13431;51.352;6.412;2022-12-24T02:01:05;8.80;99.90
25536;DHT22;13431;51.352;6.412;2022-12-24T02:03:33;8.70;99.90
25536;DHT22;13431;51.352;6.412;2022-12-24T02:06:01;8.90;99.90
25536;DHT22;13431;51.352;6.412;2022-12-24T02:08:28;8.80;99.90
25536;DHT22;13431;51.352;6.412;2022-12-24T02:11:17;8.80;99.90
25536;DHT22;13431;51.352;6.412;2022-12-24T02:13:56;8.70;99.90
25536;DHT22;13431;51.352;6.412;2022-12-24T02:30:41;8.60;99.90
25536;DHT22;13431;51.352;6.412;2022-12-24T02:35:53;8.60;99.90
25536;DHT22;13431;51.352;6.412;2022-12-24T02:38:29;8.50;99.90
25536;DHT22;13431;51.352;6.412;2022-12-24T02:41:02;8.50;99.90
25536;DHT22;13431;51.352;6.412;2022-12-24T02:43:37;8.40;99.90
25536;DHT22;13431;51.352;6.412;2022-12-24T02:46:22;8.40;99.90
25536;DHT22;13431;51.352;6.412;2022-12-24T02:48:50;8.50;99.90
25536;DHT22;13431;51.352;6.412;2022-12-24T02:51:22;8.50;99.90
25536;DHT22;13431;51.352;6.412;2022-12-24T02:53:50;8.50;99.90
25536;DHT22;13431;51.352;6.412;2022-12-24T03:04:24;8.60;99.90
25536;DHT22;13431;51.352;6.412;2022-12-24T03:07:16;8.60;99.90
25536;DHT22;13431;51.352;6.412;2022-12-24T03:09:55;8.80;99.90
25536;DHT22;13431;51.352;6.412;2022-12-24T03:12:31;9.00;99.90
25536;DHT22;13431;51.352;6.412;2022-12-24T03:15:00;9.10;99.90
25536;DHT22;13431;51.352;6.412;2022-12-24T03:17:28;9.20;99.90
25536;DHT22;13431;51.352;6.412;2022-12-24T03:19:57;9.40;99.90
25536;DHT22;13431;51.352;6.412;2022-12-24T03:22:25;9.60;99.90
25536;DHT22;13431;51.352;6.412;2022-12-24T03:24:53;9.60;99.90
25536;DHT22;13431;51.352;6.412;2022-12-24T03:27:21;9.60;99.90
25536;DHT22;13431;51.352;6.412;2022-12-24T03:29:50;9.70;99.90
25536;DHT22;13431;51.352;6.412;2022-12-24T03:34:54;9.70;99.90
25536;DHT22;13431;51.352;6.412;2022-12-24T03:37:22;9.80;99.90
25536;DHT22;13431;51.352;6.412;2022-12-24T03:39:49;9.80;99.90
25536;DHT22;13431;51.352;6.412;2022-12-24T03:42:15;9.90;99.90
25536;DHT22;13431;51.352;6.412;2022-12-24T03:44:43;9.90;99.90
25536;DHT22;13431;51.352;6.412;2022-12-24T03:47:10;9.90;99.90
25536;DHT22;13431;51.352;6.412;2022-12-24T03:49:37;9.90;99.90
25536;DHT22;13431;51.352;6.412;2022-12-24T03:52:04;9.90;99.90
25536;DHT22;13431;51.352;6.412;2022-12-24T03:54:32;9.90;99.90
25536;DHT22;13431;51.352;6.412;2022-12-24T03:56:59;9.90;99.90
25536;DHT22;13431;51.352;6.412;2022-12-24T03:59:26;10.00;99.90
25536;DHT22;13431;51.352;6.412;2022-12-24T04:01:54;10.00;99.90
25536;DHT22;13431;51.352;6.412;2022-12-24T04:04:21;9.90;99.90
25536;DHT22;13431;51.352;6.412;2022-12-24T04:06:49;9.90;99.90
25536;DHT22;13431;51.352;6.412;2022-12-24T04:09:16;9.90;99.90
25536;DHT22;13431;51.352;6.412;2022-12-24T04:11:43;9.90;99.90
25536;DHT22;13431;51.352;6.412;2022-12-24T04:14:10;9.90;99.90
25536;DHT22;13431;51.352;6.412;2022-12-24T04:16:38;9.80;99.90
25536;DHT22;13431;51.352;6.412;2022-12-24T04:19:05;9.80;99.90
25536;DHT22;13431;51.352;6.412;2022-12-24T04:21:32;9.90;99.90
25536;DHT22;13431;51.352;6.412;2022-12-24T04:24:00;9.90;99.90
25536;DHT22;13431;51.352;6.412;2022-12-24T04:26:27;10.00;99.90
25536;DHT22;13431;51.352;6.412;2022-12-24T04:28:54;10.00;99.90
25536;DHT22;13431;51.352;6.412;2022-12-24T04:31:21;10.00;99.90
25536;DHT22;13431;51.352;6.412;2022-12-24T04:33:50;10.00;99.90
25536;DHT22;13431;51.352;6.412;2022-12-24T04:36:18;9.80;99.90
25536;DHT22;13431;51.352;6.412;2022-12-24T04:38:47;9.80;99.90
25536;DHT22;13431;51.352;6.412;2022-12-24T04:41:17;9.60;99.90
25536;DHT22;13431;51.352;6.412;2022-12-24T04:43:51;9.50;99.90
25536;DHT22;13431;51.352;6.412;2022-12-24T04:46:21;9.50;99.90
25536;DHT22;13431;51.352;6.412;2022-12-24T04:48:50;9.50;99.90
25536;DHT22;13431;51.352;6.412;2022-12-24T04:51:19;9.60;99.90
25536;DHT22;13431;51.352;6.412;2022-12-24T04:53:47;9.60;99.90
25536;DHT22;13431;51.352;6.412;2022-12-24T04:56:16;9.70;99.90
25536;DHT22;13431;51.352;6.412;2022-12-24T04:58:44;9.70;99.90
25536;DHT22;13431;51.352;6.412;2022-12-24T05:01:16;9.70;99.90
25536;DHT22;13431;51.352;6.412;2022-12-24T05:03:44;9.80;99.90
25536;DHT22;13431;51.352;6.412;2022-12-24T05:06:15;9.80;99.90
25536;DHT22;13431;51.352;6.412;2022-12-24T05:08:43;9.80;99.90
25536;DHT22;13431;51.352;6.412;2022-12-24T05:11:11;9.80;99.90
25536;DHT22;13431;51.352;6.412;2022-12-24T05:13:42;9.80;99.90
25536;DHT22;13431;51.352;6.412;2022-12-24T05:16:15;9.80;99.90
25536;DHT22;13431;51.352;6.412;2022-12-24T05:18:43;9.80;99.90
25536;DHT22;13431;51.352;6.412;2022-12-24T05:21:15;9.70;99.90
25536;DHT22;13431;51.352;6.412;2022-12-24T05:23:42;9.70;99.90
25536;DHT22;13431;51.352;6.412;2022-12-24T05:26:44;9.60;99.90
25536;DHT22;13431;51.352;6.412;2022-12-24T05:29:13;9.60;99.90
25536;DHT22;13431;51.352;6.412;2022-12-24T05:31:41;9.60;99.90
25536;DHT22;13431;51.352;6.412;2022-12-24T05:34:09;9.60;99.90
25536;DHT22;13431;51.352;6.412;2022-12-24T05:36:37;9.40;99.90
25536;DHT22;13431;51.352;6.412;2022-12-24T05:39:05;9.30;99.90
25536;DHT22;13431;51.352;6.412;2022-12-24T05:41:39;9.40;99.90
25536;DHT22;13431;51.352;6.412;2022-12-24T05:44:06;9.30;99.90
25536;DHT22;13431;51.352;6.412;2022-12-24T05:46:34;9.20;99.90
25536;DHT22;13431;51.352;6.412;2022-12-24T05:49:01;9.20;99.90
25536;DHT22;13431;51.352;6.412;2022-12-24T05:51:29;9.20;99.90
25536;DHT22;13431;51.352;6.412;2022-12-24T05:53:56;9.10;99.90
25536;DHT22;13431;51.352;6.412;2022-12-24T05:56:24;9.00;99.90
25536;DHT22;13431;51.352;6.412;2022-12-24T05:58:53;8.90;99.90
25536;DHT22;13431;51.352;6.412;2022-12-24T06:01:21;9.20;99.90
25536;DHT22;13431;51.352;6.412;2022-12-24T06:03:49;9.30;99.90
25536;DHT22;13431;51.352;6.412;2022-12-24T06:06:20;9.40;99.90
25536;DHT22;13431;51.352;6.412;2022-12-24T06:08:48;9.50;99.90
25536;DHT22;13431;51.352;6.412;2022-12-24T06:11:18;9.50;99.90
25536;DHT22;13431;51.352;6.412;2022-12-24T06:13:46;9.30;99.90
25536;DHT22;13431;51.352;6.412;2022-12-24T06:16:15;9.40;99.90
25536;DHT22;13431;51.352;6.412;2022-12-24T06:18:43;9.30;99.90
25536;DHT22;13431;51.352;6.412;2022-12-24T06:21:11;9.30;99.90
25536;DHT22;13431;51.352;6.412;2022-12-24T06:23:41;9.40;99.90
25536;DHT22;13431;51.352;6.412;2022-12-24T06:26:11;9.50;99.90
25536;DHT22;13431;51.352;6.412;2022-12-24T06:28:39;9.50;99.90
25536;DHT22;13431;51.352;6.412;2022-12-24T06:31:11;9.60;99.90
25536;DHT22;13431;51.352;6.412;2022-12-24T06:33:38;9.70;99.90
25536;DHT22;13431;51.352;6.412;2022-12-24T06:36:07;9.60;99.90
25536;DHT22;13431;51.352;6.412;2022-12-24T06:38:43;9.50;99.90
25536;DHT22;13431;51.352;6.412;2022-12-24T06:41:11;9.40;99.90
25536;DHT22;13431;51.352;6.412;2022-12-24T06:43:38;9.20;99.90
25536;DHT22;13431;51.352;6.412;2022-12-24T06:46:06;9.20;99.90
25536;DHT22;13431;51.352;6.412;2022-12-24T06:48:34;9.10;99.90
25536;DHT22;13431;51.352;6.412;2022-12-24T06:51:02;9.40;99.90
25536;DHT22;13431;51.352;6.412;2022-12-24T06:53:30;9.50;99.90
25536;DHT22;13431;51.352;6.412;2022-12-24T06:56:10;9.50;99.90
25536;DHT22;13431;51.352;6.412;2022-12-24T06:58:37;9.60;99.90
25536;DHT22;13431;51.352;6.412;2022-12-24T07:01:07;9.60;99.90
25536;DHT22;13431;51.352;6.412;2022-12-24T07:03:35;9.60;99.90
25536;DHT22;13431;51.352;6.412;2022-12-24T07:06:02;9.50;99.90
25536;DHT22;13431;51.352;6.412;2022-12-24T07:08:31;9.40;99.90
25536;DHT22;13431;51.352;6.412;2022-12-24T07:11:00;9.20;99.90
25536;DHT22;13431;51.352;6.412;2022-12-24T07:13:27;9.00;99.90
25536;DHT22;13431;51.352;6.412;2022-12-24T07:16:00;8.90;99.90
25536;DHT22;13431;51.352;6.412;2022-12-24T07:18:28;8.80;99.90
25536;DHT22;13431;51.352;6.412;2022-12-24T07:20:55;8.80;99.90
25536;DHT22;13431;51.352;6.412;2022-12-24T07:23:23;8.70;99.90
25536;DHT22;13431;51.352;6.412;2022-12-24T07:25:50;8.70;99.90
25536;DHT22;13431;51.352;6.412;2022-12-24T07:28:17;8.60;99.90
25536;DHT22;13431;51.352;6.412;2022-12-24T07:30:54;8.50;99.90
25536;DHT22;13431;51.352;6.412;2022-12-24T07:33:23;8.60;99.90
25536;DHT22;13431;51.352;6.412;2022-12-24T07:36:05;8.60;99.90
25536;DHT22;13431;51.352;6.412;2022-12-24T07:38:33;8.80;99.90
25536;DHT22;13431;51.352;6.412;2022-12-24T07:41:01;9.00;99.90
25536;DHT22;13431;51.352;6.412;2022-12-24T07:43:28;9.10;99.90
25536;DHT22;13431;51.352;6.412;2022-12-24T07:45:57;9.10;99.90
25536;DHT22;13431;51.352;6.412;2022-12-24T07:48:26;9.20;99.90
25536;DHT22;13431;51.352;6.412;2022-12-24T07:50:54;9.30;99.90
25536;DHT22;13431;51.352;6.412;2022-12-24T07:53:23;9.40;99.90
25536;DHT22;13431;51.352;6.412;2022-12-24T07:55:51;9.30;99.90
25536;DHT22;13431;51.352;6.412;2022-12-24T07:58:18;9.10;99.90
25536;DHT22;13431;51.352;6.412;2022-12-24T08:00:45;8.90;99.90
25536;DHT22;13431;51.352;6.412;2022-12-24T08:03:17;8.80;99.90
25536;DHT22;13431;51.352;6.412;2022-12-24T08:05:45;8.70;99.90
25536;DHT22;13431;51.352;6.412;2022-12-24T08:08:13;8.90;99.90
25536;DHT22;13431;51.352;6.412;2022-12-24T08:10:41;9.00;99.90
25536;DHT22;13431;51.352;6.412;2022-12-24T08:13:09;9.00;99.90
25536;DHT22;13431;51.352;6.412;2022-12-24T08:15:36;9.10;99.90
25536;DHT22;13431;51.352;6.412;2022-12-24T08:18:03;9.30;99.90
25536;DHT22;13431;51.352;6.412;2022-12-24T08:20:31;9.40;99.90
25536;DHT22;13431;51.352;6.412;2022-12-24T08:22:58;9.50;99.90
25536;DHT22;13431;51.352;6.412;2022-12-24T08:25:25;9.60;99.90
25536;DHT22;13431;51.352;6.412;2022-12-24T08:27:52;9.60;99.90
25536;DHT22;13431;51.352;6.412;2022-12-24T08:30:20;9.70;99.90
25536;DHT22;13431;51.352;6.412;2022-12-24T08:32:48;9.80;99.90
25536;DHT22;13431;51.352;6.412;2022-12-24T08:35:15;9.80;99.90
25536;DHT22;13431;51.352;6.412;2022-12-24T08:37:42;9.90;99.90
25536;DHT22;13431;51.352;6.412;2022-12-24T08:40:10;10.00;99.90
25536;DHT22;13431;51.352;6.412;2022-12-24T08:42:38;10.00;99.90
25536;DHT22;13431;51.352;6.412;2022-12-24T08:45:06;10.00;99.90
25536;DHT22;13431;51.352;6.412;2022-12-24T08:47:33;9.80;99.90
25536;DHT22;13431;51.352;6.412;2022-12-24T08:50:00;9.90;99.90
25536;DHT22;13431;51.352;6.412;2022-12-24T08:52:28;9.90;99.90
25536;DHT22;13431;51.352;6.412;2022-12-24T08:54:55;10.10;99.90
25536;DHT22;13431;51.352;6.412;2022-12-24T08:57:22;10.10;99.90
25536;DHT22;13431;51.352;6.412;2022-12-24T08:59:50;10.10;99.90
25536;DHT22;13431;51.352;6.412;2022-12-24T09:02:17;10.20;99.90
25536;DHT22;13431;51.352;6.412;2022-12-24T09:04:45;10.20;99.90
25536;DHT22;13431;51.352;6.412;2022-12-24T09:07:12;10.20;99.90
25536;DHT22;13431;51.352;6.412;2022-12-24T09:09:39;10.30;99.90
25536;DHT22;13431;51.352;6.412;2022-12-24T09:12:07;10.40;99.90
25536;DHT22;13431;51.352;6.412;2022-12-24T09:14:36;10.40;99.90
25536;DHT22;13431;51.352;6.412;2022-12-24T09:17:03;10.40;99.90
25536;DHT22;13431;51.352;6.412;2022-12-24T09:19:32;10.50;99.90
25536;DHT22;13431;51.352;6.412;2022-12-24T09:21:59;10.50;99.90
25536;DHT22;13431;51.352;6.412;2022-12-24T09:24:27;10.50;99.90
25536;DHT22;13431;51.352;6.412;2022-12-24T09:26:54;10.50;99.90
25536;DHT22;13431;51.352;6.412;2022-12-24T09:29:24;10.50;99.90
25536;DHT22;13431;51.352;6.412;2022-12-24T09:31:51;10.50;99.90
25536;DHT22;13431;51.352;6.412;2022-12-24T09:34:21;10.50;99.90
25536;DHT22;13431;51.352;6.412;2022-12-24T09:36:56;10.50;99.90
25536;DHT22;13431;51.352;6.412;2022-12-24T09:39:23;10.60;99.90
25536;DHT22;13431;51.352;6.412;2022-12-24T09:44:37;10.80;99.90
25536;DHT22;13431;51.352;6.412;2022-12-24T09:47:25;10.80;99.90
25536;DHT22;13431;51.352;6.412;2022-12-24T09:49:55;11.00;99.90
25536;DHT22;13431;51.352;6.412;2022-12-24T09:52:32;11.20;99.90
25536;DHT22;13431;51.352;6.412;2022-12-24T09:57:34;11.30;99.90
25536;DHT22;13431;51.352;6.412;2022-12-24T10:00:04;11.40;99.90
25536;DHT22;13431;51.352;6.412;2022-12-24T10:02:35;11.40;99.90
25536;DHT22;13431;51.352;6.412;2022-12-24T10:05:12;11.60;99.90
25536;DHT22;13431;51.352;6.412;2022-12-24T10:07:53;11.60;99.90
25536;DHT22;13431;51.352;6.412;2022-12-24T10:10:37;12.10;99.90
25536;DHT22;13431;51.352;6.412;2022-12-24T10:13:31;11.80;99.90
25536;DHT22;13431;51.352;6.412;2022-12-24T10:16:13;11.50;99.90
25536;DHT22;13431;51.352;6.412;2022-12-24T10:19:15;11.30;99.90
25536;DHT22;13431;51.352;6.412;2022-12-24T10:24:52;10.70;99.90
25536;DHT22;13431;51.352;6.412;2022-12-24T10:27:28;10.80;99.90
25536;DHT22;13431;51.352;6.412;2022-12-24T10:30:00;10.90;99.90
25536;DHT22;13431;51.352;6.412;2022-12-24T10:32:32;11.00;99.90
25536;DHT22;13431;51.352;6.412;2022-12-24T10:35:28;11.70;99.90
25536;DHT22;13431;51.352;6.412;2022-12-24T10:37:58;11.60;99.90
25536;DHT22;13431;51.352;6.412;2022-12-24T10:43:14;10.90;99.90
25536;DHT22;13431;51.352;6.412;2022-12-24T10:45:45;10.80;99.90
25536;DHT22;13431;51.352;6.412;2022-12-24T10:48:20;11.30;99.90
25536;DHT22;13431;51.352;6.412;2022-12-24T10:50:51;11.90;99.90
25536;DHT22;13431;51.352;6.412;2022-12-24T10:56:08;12.90;99.90
25536;DHT22;13431;51.352;6.412;2022-12-24T10:58:36;12.60;99.90
25536;DHT22;13431;51.352;6.412;2022-12-24T11:01:08;12.50;99.90
25536;DHT22;13431;51.352;6.412;2022-12-24T11:03:36;12.20;99.90
25536;DHT22;13431;51.352;6.412;2022-12-24T11:06:15;12.00;99.90
25536;DHT22;13431;51.352;6.412;2022-12-24T11:08:47;11.60;99.90
25536;DHT22;13431;51.352;6.412;2022-12-24T11:11:19;11.30;99.90
25536;DHT22;13431;51.352;6.412;2022-12-24T11:16:20;11.00;99.90
25536;DHT22;13431;51.352;6.412;2022-12-24T11:18:51;10.90;99.90
25536;DHT22;13431;51.352;6.412;2022-12-24T11:21:26;11.00;99.90
25536;DHT22;13431;51.352;6.412;2022-12-24T11:23:59;11.50;99.90
25536;DHT22;13431;51.352;6.412;2022-12-24T11:26:30;11.90;99.90
25536;DHT22;13431;51.352;6.412;2022-12-24T11:29:13;12.30;99.90
25536;DHT22;13431;51.352;6.412;2022-12-24T11:31:42;12.30;99.90
25536;DHT22;13431;51.352;6.412;2022-12-24T11:36:50;12.10;99.90
25536;DHT22;13431;51.352;6.412;2022-12-24T11:39:21;12.00;99.90
25536;DHT22;13431;51.352;6.412;2022-12-24T11:41:49;12.10;99.90
25536;DHT22;13431;51.352;6.412;2022-12-24T11:44:27;12.20;99.90
25536;DHT22;13431;51.352;6.412;2022-12-24T11:46:55;12.20;99.90
25536;DHT22;13431;51.352;6.412;2022-12-24T11:49:30;12.30;99.90
25536;DHT22;13431;51.352;6.412;2022-12-24T11:52:12;12.40;99.90
25536;DHT22;13431;51.352;6.412;2022-12-24T11:54:51;12.50;99.90
25536;DHT22;13431;51.352;6.412;2022-12-24T11:57:26;12.50;99.90
25536;DHT22;13431;51.352;6.412;2022-12-24T11:59:55;12.60;99.90
25536;DHT22;13431;51.352;6.412;2022-12-24T12:02:30;12.80;99.90
25536;DHT22;13431;51.352;6.412;2022-12-24T12:05:12;13.00;99.90
25536;DHT22;13431;51.352;6.412;2022-12-24T12:07:41;13.00;99.90
25536;DHT22;13431;51.352;6.412;2022-12-24T12:10:23;13.20;99.90
25536;DHT22;13431;51.352;6.412;2022-12-24T12:12:59;13.10;99.90
25536;DHT22;13431;51.352;6.412;2022-12-24T12:15:32;13.00;99.90
25536;DHT22;13431;51.352;6.412;2022-12-24T12:18:14;12.90;99.90
25536;DHT22;13431;51.352;6.412;2022-12-24T12:20:47;13.10;99.90
25536;DHT22;13431;51.352;6.412;2022-12-24T12:23:24;13.30;99.90
25536;DHT22;13431;51.352;6.412;2022-12-24T12:28:46;13.50;99.90
25536;DHT22;13431;51.352;6.412;2022-12-24T12:36:46;12.70;99.90
25536;DHT22;13431;51.352;6.412;2022-12-24T12:39:14;12.60;99.90
25536;DHT22;13431;51.352;6.412;2022-12-24T12:44:35;12.40;99.90
25536;DHT22;13431;51.352;6.412;2022-12-24T12:50:21;12.50;99.90
25536;DHT22;13431;51.352;6.412;2022-12-24T12:53:03;12.70;99.90
25536;DHT22;13431;51.352;6.412;2022-12-24T12:58:38;12.60;99.90
25536;DHT22;13431;51.352;6.412;2022-12-24T13:01:16;12.70;99.90
25536;DHT22;13431;51.352;6.412;2022-12-24T13:20:41;12.40;99.90
25536;DHT22;13431;51.352;6.412;2022-12-24T13:23:25;12.60;99.90
25536;DHT22;13431;51.352;6.412;2022-12-24T13:25:55;12.60;99.90
25536;DHT22;13431;51.352;6.412;2022-12-24T13:36:09;12.50;99.90
25536;DHT22;13431;51.352;6.412;2022-12-24T13:38:51;12.20;99.90
25536;DHT22;13431;51.352;6.412;2022-12-24T13:46:53;11.50;99.90
25536;DHT22;13431;51.352;6.412;2022-12-24T13:49:38;11.30;99.90
25536;DHT22;13431;51.352;6.412;2022-12-24T13:54:42;11.00;99.90
25536;DHT22;13431;51.352;6.412;2022-12-24T13:57:31;10.90;99.90
25536;DHT22;13431;51.352;6.412;2022-12-24T14:05:38;10.80;99.90
25536;DHT22;13431;51.352;6.412;2022-12-24T14:08:10;10.70;99.90
25536;DHT22;13431;51.352;6.412;2022-12-24T14:10:45;10.60;99.90
25536;DHT22;13431;51.352;6.412;2022-12-24T14:19:22;10.50;99.90
25536;DHT22;13431;51.352;6.412;2022-12-24T14:22:02;10.40;99.90
25536;DHT22;13431;51.352;6.412;2022-12-24T14:24:36;10.40;99.90
25536;DHT22;13431;51.352;6.412;2022-12-24T14:27:31;10.30;99.90
25536;DHT22;13431;51.352;6.412;2022-12-24T14:32:37;10.00;99.90
25536;DHT22;13431;51.352;6.412;2022-12-24T14:37:56;9.80;99.90
25536;DHT22;13431;51.352;6.412;2022-12-24T14:40:27;9.60;99.90
25536;DHT22;13431;51.352;6.412;2022-12-24T14:43:13;9.50;99.90
25536;DHT22;13431;51.352;6.412;2022-12-24T14:45:52;9.40;99.90
25536;DHT22;13431;51.352;6.412;2022-12-24T14:48:28;9.40;99.90
25536;DHT22;13431;51.352;6.412;2022-12-24T14:56:33;9.10;99.90
25536;DHT22;13431;51.352;6.412;2022-12-24T14:59:16;9.00;99.90
25536;DHT22;13431;51.352;6.412;2022-12-24T15:01:44;8.90;99.90
25536;DHT22;13431;51.352;6.412;2022-12-24T15:04:15;8.90;99.90
25536;DHT22;13431;51.352;6.412;2022-12-24T15:06:44;8.80;99.90
25536;DHT22;13431;51.352;6.412;2022-12-24T15:09:27;8.60;99.90
25536;DHT22;13431;51.352;6.412;2022-12-24T15:11:58;8.50;99.90
25536;DHT22;13431;51.352;6.412;2022-12-24T15:14:28;8.30;99.90
25536;DHT22;13431;51.352;6.412;2022-12-24T15:17:00;8.20;99.90
25536;DHT22;13431;51.352;6.412;2022-12-24T15:22:01;8.40;99.90
25536;DHT22;13431;51.352;6.412;2022-12-24T15:27:00;8.30;99.90
25536;DHT22;13431;51.352;6.412;2022-12-24T15:29:31;8.20;99.90
25536;DHT22;13431;51.352;6.412;2022-12-24T15:32:00;8.00;99.90
25536;DHT22;13431;51.352;6.412;2022-12-24T15:34:39;7.90;99.90
25536;DHT22;13431;51.352;6.412;2022-12-24T15:37:17;7.80;99.90
25536;DHT22;13431;51.352;6.412;2022-12-24T15:42:29;7.50;99.90
25536;DHT22;13431;51.352;6.412;2022-12-24T15:45:03;7.30;99.90
25536;DHT22;13431;51.352;6.412;2022-12-24T15:47:34;7.20;99.90
25536;DHT22;13431;51.352;6.412;2022-12-24T15:50:28;7.10;99.90
25536;DHT22;13431;51.352;6.412;2022-12-24T15:53:11;6.90;99.90
25536;DHT22;13431;51.352;6.412;2022-12-24T15:58:38;6.70;99.90
25536;DHT22;13431;51.352;6.412;2022-12-24T16:03:55;6.60;99.90
25536;DHT22;13431;51.352;6.412;2022-12-24T16:06:26;6.60;99.90
25536;DHT22;13431;51.352;6.412;2022-12-24T16:08:54;6.60;99.90
25536;DHT22;13431;51.352;6.412;2022-12-24T16:11:33;6.60;99.90
25536;DHT22;13431;51.352;6.412;2022-12-24T16:14:09;6.50;99.90
25536;DHT22;13431;51.352;6.412;2022-12-24T16:16:48;6.40;99.90
25536;DHT22;13431;51.352;6.412;2022-12-24T16:19:37;6.20;99.90
25536;DHT22;13431;51.352;6.412;2022-12-24T16:22:08;6.30;99.90
25536;DHT22;13431;51.352;6.412;2022-12-24T16:24:55;6.50;99.90
25536;DHT22;13431;51.352;6.412;2022-12-24T16:27:22;6.50;99.90
25536;DHT22;13431;51.352;6.412;2022-12-24T16:29:50;6.50;99.90
25536;DHT22;13431;51.352;6.412;2022-12-24T16:32:34;6.60;99.90
25536;DHT22;13431;51.352;6.412;2022-12-24T16:35:05;6.70;99.90
25536;DHT22;13431;51.352;6.412;2022-12-24T16:37:34;6.70;99.90
25536;DHT22;13431;51.352;6.412;2022-12-24T16:40:02;6.70;99.90
25536;DHT22;13431;51.352;6.412;2022-12-24T16:42:29;6.70;99.90
25536;DHT22;13431;51.352;6.412;2022-12-24T16:45:15;6.60;99.90
25536;DHT22;13431;51.352;6.412;2022-12-24T16:47:43;6.40;99.90
25536;DHT22;13431;51.352;6.412;2022-12-24T16:50:14;6.30;99.90
25536;DHT22;13431;51.352;6.412;2022-12-24T16:52:43;6.20;99.90
25536;DHT22;13431;51.352;6.412;2022-12-24T16:55:14;6.20;99.90
25536;DHT22;13431;51.352;6.412;2022-12-24T16:57:42;6.20;99.90
25536;DHT22;13431;51.352;6.412;2022-12-24T17:00:16;6.20;99.90
25536;DHT22;13431;51.352;6.412;2022-12-24T17:02:45;6.20;99.90
25536;DHT22;13431;51.352;6.412;2022-12-24T17:05:13;6.20;99.90
25536;DHT22;13431;51.352;6.412;2022-12-24T17:07:41;6.20;99.90
25536;DHT22;13431;51.352;6.412;2022-12-24T17:10:12;6.30;99.90
25536;DHT22;13431;51.352;6.412;2022-12-24T17:12:41;6.30;99.90
25536;DHT22;13431;51.352;6.412;2022-12-24T17:15:09;6.40;99.90
25536;DHT22;13431;51.352;6.412;2022-12-24T17:17:36;6.40;99.90
25536;DHT22;13431;51.352;6.412;2022-12-24T17:20:05;6.40;99.90
25536;DHT22;13431;51.352;6.412;2022-12-24T17:22:33;6.30;99.90
25536;DHT22;13431;51.352;6.412;2022-12-24T17:25:01;6.20;99.90
25536;DHT22;13431;51.352;6.412;2022-12-24T17:27:29;6.10;99.90
25536;DHT22;13431;51.352;6.412;2022-12-24T17:29:57;6.20;99.90
25536;DHT22;13431;51.352;6.412;2022-12-24T17:32:25;6.40;99.90
25536;DHT22;13431;51.352;6.412;2022-12-24T17:34:55;6.40;99.90
25536;DHT22;13431;51.352;6.412;2022-12-24T17:37:26;6.30;99.90
25536;DHT22;13431;51.352;6.412;2022-12-24T17:39:54;6.30;99.90
25536;DHT22;13431;51.352;6.412;2022-12-24T17:42:22;6.30;99.90
25536;DHT22;13431;51.352;6.412;2022-12-24T17:44:49;6.30;99.90
25536;DHT22;13431;51.352;6.412;2022-12-24T17:47:17;6.20;99.90
25536;DHT22;13431;51.352;6.412;2022-12-24T17:49:45;6.10;99.90
25536;DHT22;13431;51.352;6.412;2022-12-24T17:52:12;6.00;99.90
25536;DHT22;13431;51.352;6.412;2022-12-24T17:54:40;6.00;99.90
25536;DHT22;13431;51.352;6.412;2022-12-24T17:57:08;5.90;99.90
25536;DHT22;13431;51.352;6.412;2022-12-24T17:59:36;6.00;99.90
25536;DHT22;13431;51.352;6.412;2022-12-24T18:02:04;6.10;99.90
25536;DHT22;13431;51.352;6.412;2022-12-24T18:04:32;6.10;99.90
25536;DHT22;13431;51.352;6.412;2022-12-24T18:07:00;6.20;99.90
25536;DHT22;13431;51.352;6.412;2022-12-24T18:09:31;6.20;99.90
25536;DHT22;13431;51.352;6.412;2022-12-24T18:11:59;6.20;99.90
25536;DHT22;13431;51.352;6.412;2022-12-24T18:14:30;6.20;99.90
25536;DHT22;13431;51.352;6.412;2022-12-24T18:17:02;6.00;99.90
25536;DHT22;13431;51.352;6.412;2022-12-24T18:19:33;6.00;99.90
25536;DHT22;13431;51.352;6.412;2022-12-24T18:22:07;5.80;99.90
25536;DHT22;13431;51.352;6.412;2022-12-24T18:24:35;5.80;99.90
25536;DHT22;13431;51.352;6.412;2022-12-24T18:27:04;5.70;99.90